Time;durP1;ratioP1;P1;durP2;ratioP2;P2;SDS_P1;SDS_P2;PMS_P1;PMS_P2;Temp;Humidity;BMP_temperature;BMP_pressure;BME280_temperature;BME280_humidity;BME280_pressure;Samples;Min_cycle;Max_cycle;Signal;HPM_P1;HPM_P2
2023/02/12 00:04:53;;;;;;;2.33;1.05;;;19.60;66.90;;;;;;10520336;28;20135;-25
2023/02/12 00:09:55;;;;;;;3.17;1.20;;;19.50;67.00;;;;;;10518815;28;20080;-22
2023/02/12 00:14:58;;;;;;;2.65;1.33;;;19.50;66.80;;;;;;10520539;28;20095;-27
2023/02/12 00:20:00;;;;;;;1.17;0.90;;;19.50;66.80;;;;;;10522271;28;20127;-24
2023/02/12 00:25:02;;;;;;;1.33;0.80;;;19.50;66.70;;;;;;10512761;28;20061;-24
2023/02/12 00:30:06;;;;;;;2.22;1.20;;;19.50;66.80;;;;;;10527582;28;20502;-26
2023/02/12 00:35:08;;;;;;;2.40;1.00;;;19.50;66.70;;;;;;10511707;28;20131;-24
2023/02/12 00:40:11;;;;;;;5.68;1.50;;;19.50;66.80;;;;;;10513195;28;20080;-26
2023/02/12 00:45:14;;;;;;;2.55;1.58;;;19.50;66.40;;;;;;10521827;28;20079;-24
2023/02/12 00:50:16;;;;;;;1.90;1.08;;;19.40;66.70;;;;;;10516573;28;20128;-27
2023/02/12 00:55:18;;;;;;;3.50;1.13;;;19.40;66.40;;;;;;10522453;28;20532;-26
2023/02/12 01:00:23;;;;;;;3.22;1.10;;;19.40;66.50;;;;;;10502709;28;20492;-26
2023/02/12 01:05:25;;;;;;;3.08;1.25;;;19.40;66.40;;;;;;10513365;28;20098;-25
2023/02/12 01:10:27;;;;;;;1.60;1.00;;;19.30;66.60;;;;;;10513955;28;20056;-23
2023/02/12 01:15:31;;;;;;;1.67;1.00;;;19.30;66.20;;;;;;10515987;28;20137;-24
2023/02/12 01:20:33;;;;;;;1.55;0.95;;;19.30;66.40;;;;;;10496350;28;20052;-23
2023/02/12 01:25:35;;;;;;;2.25;1.00;;;19.30;66.30;;;;;;10502554;28;20068;-23
2023/02/12 01:30:39;;;;;;;2.97;1.33;;;19.30;66.10;;;;;;10517310;28;20044;-23
2023/02/12 01:35:40;;;;;;;2.58;0.98;;;19.30;66.10;;;;;;10521441;28;20080;-24
2023/02/12 01:40:42;;;;;;;2.83;1.20;;;19.30;66.30;;;;;;10520731;28;20086;-24
2023/02/12 01:45:53;;;;;;;2.13;0.95;;;19.30;66.10;;;;;;10515858;28;20143;-23
2023/02/12 01:50:57;;;;;;;1.27;1.05;;;19.30;66.00;;;;;;10523398;28;20044;-23
2023/02/12 01:56:01;;;;;;;4.57;1.20;;;19.30;65.80;;;;;;10518079;28;20084;-25
2023/02/12 02:01:07;;;;;;;3.85;0.80;;;19.30;65.80;;;;;;10506265;28;20071;-24
2023/02/12 02:06:13;;;;;;;6.50;0.98;;;19.30;65.70;;;;;;10494055;28;20115;-24
2023/02/12 02:16:37;;;;;;;1.27;0.80;;;19.20;65.60;;;;;;10503963;28;20067;-23
2023/02/12 02:22:11;;;;;;;1.95;0.95;;;19.20;65.60;;;;;;10516034;28;20097;-25
2023/02/12 02:27:20;;;;;;;0.73;0.50;;;19.20;65.50;;;;;;10493947;28;20136;-24
2023/02/12 02:32:27;;;;;;;1.23;0.60;;;19.20;65.50;;;;;;10507943;28;20052;-23
2023/02/12 02:37:33;;;;;;;3.60;0.88;;;19.20;65.20;;;;;;10503678;28;20040;-25
2023/02/12 02:42:39;;;;;;;2.38;0.80;;;19.20;65.40;;;;;;10509567;28;20214;-22
2023/02/12 02:47:47;;;;;;;0.65;0.43;;;19.10;65.30;;;;;;10507679;28;20131;-23
2023/02/12 02:52:53;;;;;;;0.80;0.52;;;19.10;65.10;;;;;;10504252;28;20129;-24
2023/02/12 02:57:59;;;;;;;1.30;0.60;;;19.20;65.10;;;;;;10498344;28;20479;-24
2023/02/12 03:03:11;;;;;;;1.65;0.63;;;19.10;65.00;;;;;;10500812;28;20135;-24
2023/02/12 03:08:19;;;;;;;1.17;0.60;;;19.10;65.00;;;;;;10500195;28;20044;-24
2023/02/12 03:13:25;;;;;;;2.45;0.43;;;19.00;65.10;;;;;;10494661;28;20131;-26
2023/02/12 03:18:34;;;;;;;0.80;0.40;;;18.90;66.00;;;;;;10497939;28;20055;-25
2023/02/12 03:23:40;;;;;;;3.05;0.50;;;19.00;64.70;;;;;;10493854;28;20067;-23
2023/02/12 03:28:42;;;;;;;1.60;0.50;;;19.10;64.50;;;;;;10498005;28;20048;-24
2023/02/12 03:33:58;;;;;;;1.00;0.40;;;19.00;64.40;;;;;;10503078;28;20087;-24
2023/02/12 03:39:06;;;;;;;1.80;0.60;;;19.00;64.50;;;;;;10504588;28;20083;-25
2023/02/12 03:44:14;;;;;;;1.73;0.70;;;19.10;64.50;;;;;;10509347;28;20494;-24
2023/02/12 03:49:22;;;;;;;0.35;0.22;;;19.00;64.60;;;;;;10513291;28;20488;-23
2023/02/12 03:54:24;;;;;;;2.00;0.30;;;19.00;64.30;;;;;;10511287;28;20521;-24
2023/02/12 03:59:26;;;;;;;0.98;0.75;;;19.00;64.40;;;;;;10520528;28;20147;-23
2023/02/12 04:04:30;;;;;;;;;;;19.00;64.20;;;;;;10507653;28;20045;-24
2023/02/12 04:09:32;;;;;;;1.75;0.50;;;19.00;64.20;;;;;;10508196;28;19981;-24
2023/02/12 04:14:42;;;;;;;1.13;0.43;;;19.00;64.20;;;;;;10515018;28;20097;-27
2023/02/12 04:19:58;;;;;;;1.58;0.50;;;19.00;64.00;;;;;;10508417;28;20438;-26
2023/02/12 04:25:08;;;;;;;0.60;0.35;;;19.00;64.20;;;;;;10508082;28;20068;-24
2023/02/12 04:30:18;;;;;;;1.42;0.32;;;19.00;64.00;;;;;;10508283;28;20075;-23
2023/02/12 04:35:27;;;;;;;0.63;0.35;;;18.90;63.90;;;;;;10502729;28;20131;-22
2023/02/12 04:40:29;;;;;;;1.27;0.38;;;19.00;63.70;;;;;;10507105;28;20076;-23
2023/02/12 04:45:33;;;;;;;1.70;0.50;;;18.90;63.60;;;;;;10506681;28;20138;-24
2023/02/12 04:50:41;;;;;;;2.90;0.65;;;18.90;63.60;;;;;;10497722;28;20098;-23
2023/02/12 04:55:43;;;;;;;0.90;0.40;;;18.90;63.50;;;;;;10504098;28;20051;-24
2023/02/12 05:00:45;;;;;;;0.43;0.30;;;18.90;63.40;;;;;;10504026;28;20431;-23
2023/02/12 05:05:48;;;;;;;2.42;0.50;;;18.90;63.30;;;;;;10511580;28;20532;-24
2023/02/12 05:10:50;;;;;;;0.32;0.32;;;18.90;63.20;;;;;;10518050;28;20044;-23
2023/02/12 05:15:52;;;;;;;2.50;0.50;;;18.90;63.20;;;;;;10511937;28;20138;-24
2023/02/12 05:20:59;;;;;;;1.75;0.60;;;18.90;63.30;;;;;;10512053;28;20085;-24
2023/02/12 05:26:03;;;;;;;1.55;0.50;;;18.90;63.30;;;;;;10508894;28;20044;-24
2023/02/12 05:31:07;;;;;;;0.60;0.30;;;18.90;63.10;;;;;;10504695;28;20087;-23
2023/02/12 05:36:13;;;;;;;1.23;0.50;;;18.80;63.10;;;;;;10497406;28;20556;-24
2023/02/12 05:41:19;;;;;;;0.82;0.43;;;18.80;63.10;;;;;;10506558;28;20101;-26
2023/02/12 05:46:21;;;;;;;1.52;0.57;;;18.80;63.10;;;;;;10508028;28;20050;-25
2023/02/12 05:51:26;;;;;;;1.88;0.98;;;18.80;62.90;;;;;;10505181;28;20052;-25
2023/02/12 05:56:29;;;;;;;1.60;0.50;;;18.80;63.00;;;;;;10510675;28;20093;-24
2023/02/12 06:01:33;;;;;;;3.70;0.73;;;18.90;62.40;;;;;;10522528;28;20080;-23
2023/02/12 06:06:36;;;;;;;0.75;0.50;;;19.00;62.00;;;;;;10518643;28;20059;-23
2023/02/12 06:11:38;;;;;;;0.85;0.60;;;19.00;61.80;;;;;;10525366;28;20701;-23
2023/02/12 06:16:41;;;;;;;0.68;0.60;;;19.10;61.40;;;;;;10518324;28;20167;-25
2023/02/12 06:21:44;;;;;;;;;;;19.20;61.30;;;;;;10511692;28;20048;-26
2023/02/12 06:26:48;;;;;;;1.95;0.63;;;19.20;61.20;;;;;;10511596;28;19934;-23
2023/02/12 06:31:50;;;;;;;2.42;1.00;;;19.20;61.20;;;;;;10524113;28;20079;-24
2023/02/12 06:36:54;;;;;;;1.45;0.60;;;19.30;61.00;;;;;;10527132;28;20537;-25
2023/02/12 06:41:55;;;;;;;1.58;0.70;;;19.30;60.90;;;;;;10519483;28;20123;-24
2023/02/12 06:46:58;;;;;;;1.10;0.65;;;19.30;60.80;;;;;;10520416;28;20438;-23
2023/02/12 06:52:01;;;;;;;1.67;1.38;;;19.40;60.70;;;;;;10522588;28;20811;-25
2023/02/12 06:57:03;;;;;;;0.90;0.55;;;19.40;60.70;;;;;;10518759;28;20440;-22
2023/02/12 07:14:58;;;;;;;1.48;0.85;;;19.40;60.10;;;;;;10525169;27;1455045;-22
2023/02/12 07:20:00;;;;;;;1.25;0.77;;;19.40;60.80;;;;;;10550501;28;20479;-24
2023/02/12 07:25:02;;;;;;;2.55;0.70;;;19.40;60.80;;;;;;10546705;28;20079;-26
2023/02/12 07:30:06;;;;;;;2.47;0.85;;;19.40;60.90;;;;;;10541272;28;20044;-25
2023/02/12 07:35:08;;;;;;;1.10;0.90;;;19.50;60.70;;;;;;10541717;28;20052;-26
2023/02/12 07:40:10;;;;;;;1.27;0.60;;;19.50;60.70;;;;;;10531043;28;20129;-24
2023/02/12 07:45:13;;;;;;;0.85;0.55;;;19.50;60.70;;;;;;10552053;28;20081;-25
2023/02/12 07:50:15;;;;;;;1.58;0.70;;;19.50;60.70;;;;;;10544722;28;20152;-23
2023/02/12 07:55:18;;;;;;;1.70;0.80;;;19.50;60.70;;;;;;10542748;28;20127;-24
2023/02/12 08:00:22;;;;;;;1.92;0.70;;;19.50;60.70;;;;;;10543042;28;20484;-25
2023/02/12 08:05:24;;;;;;;3.28;0.90;;;19.50;60.60;;;;;;10561965;28;20043;-24
2023/02/12 08:10:26;;;;;;;1.85;0.70;;;19.50;60.80;;;;;;10574966;28;20745;-23
2023/02/12 08:15:29;;;;;;;2.30;0.65;;;19.60;61.00;;;;;;10566464;28;20404;-23
2023/02/12 08:20:33;;;;;;;5.25;0.80;;;19.60;61.10;;;;;;10542650;28;20044;-23
2023/02/12 08:25:35;;;;;;;1.98;1.63;;;19.70;61.20;;;;;;10525348;28;20059;-25
2023/02/12 08:30:38;;;;;;;1.45;1.00;;;19.90;60.80;;;;;;10519856;28;20075;-24
2023/02/12 08:35:40;;;;;;;5.45;1.00;;;20.00;60.40;;;;;;10504675;28;20564;-24
2023/02/12 08:40:42;;;;;;;3.97;1.00;;;20.00;60.20;;;;;;10514268;28;20047;-23
2023/02/12 08:45:45;;;;;;;2.45;0.77;;;19.90;60.10;;;;;;10507827;28;20072;-23
2023/02/12 08:50:47;;;;;;;2.65;1.00;;;19.70;60.70;;;;;;10550256;28;20124;-25
2023/02/12 08:55:49;;;;;;;1.35;0.90;;;19.70;60.90;;;;;;10518355;28;20443;-24
2023/02/12 09:00:52;;;;;;;6.05;0.70;;;19.70;61.10;;;;;;10511623;28;20652;-24
2023/02/12 09:05:54;;;;;;;2.97;0.55;;;19.70;61.20;;;;;;10524291;28;20076;-24
2023/02/12 09:10:56;;;;;;;3.92;1.00;;;19.70;61.20;;;;;;10527894;28;20789;-23
2023/02/12 09:16:01;;;;;;;0.93;0.75;;;19.80;61.70;;;;;;10529411;28;20060;-24
2023/02/12 09:21:06;;;;;;;2.55;0.90;;;19.80;61.90;;;;;;10525858;28;20044;-23
2023/02/12 09:26:10;;;;;;;3.40;0.60;;;19.80;62.00;;;;;;10533249;28;20052;-24
2023/02/12 09:31:15;;;;;;;1.17;0.68;;;19.80;62.10;;;;;;10514967;28;20052;-25
2023/02/12 09:36:17;;;;;;;2.15;0.60;;;19.90;62.10;;;;;;10520001;28;20504;-25
2023/02/12 09:41:57;;;;;;;0.52;0.50;;;19.90;62.30;;;;;;10522031;28;20046;-23
2023/02/12 09:47:04;;;;;;;1.08;0.90;;;19.90;62.50;;;;;;10509610;28;20143;-24
2023/02/12 09:52:13;;;;;;;1.17;0.77;;;19.90;62.60;;;;;;10518779;28;20055;-23
2023/02/12 09:57:20;;;;;;;1.15;0.93;;;19.90;62.60;;;;;;10518300;28;20125;-23
2023/02/12 10:02:24;;;;;;;2.95;1.30;;;19.90;62.60;;;;;;10506474;28;20518;-23
2023/02/12 10:07:38;;;;;;;0.70;0.70;;;19.80;63.00;;;;;;10510082;28;20080;-24
2023/02/12 10:12:47;;;;;;;1.17;0.70;;;19.90;62.90;;;;;;10523238;28;20508;-24
2023/02/12 10:18:01;;;;;;;2.90;1.27;;;19.90;63.00;;;;;;10506888;28;20106;-24
2023/02/12 10:23:22;;;;;;;1.67;1.15;;;19.90;62.60;;;;;;10525634;28;20054;-21
2023/02/12 10:28:28;;;;;;;3.05;1.10;;;19.80;62.70;;;;;;10508464;28;20488;-27
2023/02/12 10:33:35;;;;;;;1.70;0.82;;;19.90;62.30;;;;;;10518593;28;20544;-24
2023/02/12 10:38:42;;;;;;;5.97;1.13;;;19.90;62.20;;;;;;10512262;28;20048;-26
2023/02/12 10:43:44;;;;;;;1.25;0.80;;;19.80;62.50;;;;;;10510908;28;20664;-24
2023/02/12 10:48:52;;;;;;;2.40;1.70;;;19.90;62.30;;;;;;10504274;28;20064;-24
2023/02/12 10:53:54;;;;;;;3.60;1.00;;;20.00;62.20;;;;;;10505709;28;20052;-25
2023/02/12 10:58:59;;;;;;;2.53;1.17;;;19.90;62.60;;;;;;10519411;28;20059;-24
2023/02/12 11:04:20;;;;;;;2.97;1.10;;;20.00;62.60;;;;;;10518863;28;20039;-23
2023/02/12 11:09:29;;;;;;;3.90;1.50;;;20.00;62.70;;;;;;10516778;28;20140;-25
2023/02/12 11:14:31;;;;;;;2.55;1.20;;;20.00;63.40;;;;;;10509033;28;20150;-25
2023/02/12 11:19:34;;;;;;;3.65;1.10;;;19.70;62.30;;;;;;10506627;28;20043;-25
2023/02/12 11:24:37;;;;;;;1.15;0.93;;;19.40;67.60;;;;;;10514233;28;20053;-23
2023/02/12 11:29:40;;;;;;;1.73;0.90;;;20.30;67.10;;;;;;10518598;28;20128;-25
2023/02/12 11:34:43;;;;;;;2.70;1.20;;;20.20;64.00;;;;;;10521056;28;20162;-24
2023/02/12 11:39:48;;;;;;;4.25;2.05;;;19.20;68.30;;;;;;10512122;28;20148;-24
2023/02/12 11:44:53;;;;;;;2.55;1.00;;;19.90;64.80;;;;;;10500336;28;20056;-23
2023/02/12 11:50:03;;;;;;;4.53;1.17;;;20.00;64.80;;;;;;10450291;28;20045;-23
2023/02/12 11:55:18;;;;;;;6.63;1.20;;;20.10;64.30;;;;;;10415387;28;20076;-25
2023/02/12 12:00:24;;;;;;;2.50;1.17;;;20.20;64.00;;;;;;10434460;28;20132;-24
2023/02/12 12:05:34;;;;;;;1.45;1.08;;;20.20;63.80;;;;;;10426463;28;20099;-23
2023/02/12 12:10:40;;;;;;;2.03;1.20;;;20.20;63.60;;;;;;10414745;28;21009;-23
2023/02/12 12:21:16;;;;;;;1.55;0.93;;;20.30;63.90;;;;;;10419764;28;20045;-24
2023/02/12 12:26:23;;;;;;;2.00;0.80;;;20.30;63.50;;;;;;10419321;28;20120;-23
2023/02/12 12:31:30;;;;;;;2.03;0.77;;;20.20;63.80;;;;;;10425696;28;20075;-24
2023/02/12 12:37:12;;;;;;;1.45;0.70;;;20.30;63.30;;;;;;10428528;28;20061;-25
2023/02/12 12:42:29;;;;;;;3.05;1.33;;;20.30;63.20;;;;;;10422138;28;21242;-24
2023/02/12 12:47:40;;;;;;;4.57;1.50;;;20.30;63.50;;;;;;10423096;28;20040;-24
2023/02/12 12:53:02;;;;;;;6.57;1.90;;;20.30;63.80;;;;;;10415427;28;20132;-24
2023/02/12 12:58:12;;;;;;;6.70;2.33;;;20.10;64.30;;;;;;10416272;28;20045;-24
2023/02/12 13:03:42;;;;;;;5.00;1.85;;;20.20;64.80;;;;;;10420156;28;20049;-25
2023/02/12 13:08:59;;;;;;;8.40;2.10;;;20.20;65.00;;;;;;10412664;28;20057;-24
2023/02/12 13:14:12;;;;;;;5.55;2.20;;;20.10;65.20;;;;;;10419484;28;20773;-24
2023/02/12 13:19:21;;;;;;;6.10;2.20;;;20.10;65.50;;;;;;10425207;28;20049;-25
2023/02/12 13:24:34;;;;;;;5.30;1.70;;;20.10;65.40;;;;;;10416881;28;20140;-23
2023/02/12 13:29:41;;;;;;;4.97;2.10;;;20.20;65.10;;;;;;10417818;28;20974;-25
2023/02/12 13:34:45;;;;;;;7.38;2.67;;;20.10;65.40;;;;;;10421222;28;20060;-25
2023/02/12 13:39:50;;;;;;;9.02;2.75;;;20.00;66.00;;;;;;10419485;28;20049;-24
2023/02/12 13:44:58;;;;;;;7.97;3.28;;;19.90;66.00;;;;;;10420450;28;20140;-27
2023/02/12 13:50:07;;;;;;;8.23;2.67;;;19.90;66.60;;;;;;10411524;28;20482;-23
2023/02/12 13:55:24;;;;;;;7.55;3.10;;;19.80;67.00;;;;;;10408578;28;20076;-24
2023/02/12 14:00:57;;;;;;;7.82;3.28;;;19.80;67.10;;;;;;10420725;28;20053;-24
2023/02/12 14:06:12;;;;;;;;;;;19.60;68.00;;;;;;10408448;28;20375;-24
2023/02/12 14:11:19;;;;;;;6.18;2.50;;;19.80;66.70;;;;;;10416589;28;19921;-23
2023/02/12 14:16:38;;;;;;;5.78;3.33;;;19.90;66.20;;;;;;10417336;28;20139;-24
2023/02/12 14:21:42;;;;;;;5.88;2.85;;;20.10;65.50;;;;;;10414087;28;20181;-25
2023/02/12 14:26:45;;;;;;;6.65;2.95;;;20.20;65.20;;;;;;10420617;28;20448;-24
2023/02/12 14:31:47;;;;;;;5.80;2.67;;;20.20;65.20;;;;;;10411537;28;20811;-24
2023/02/12 14:37:09;;;;;;;6.78;2.72;;;20.20;65.30;;;;;;10416867;28;20128;-24
2023/02/12 14:42:47;;;;;;;8.43;3.33;;;20.30;65.10;;;;;;10404926;28;20076;-23
2023/02/12 14:47:54;;;;;;;9.23;3.65;;;20.30;65.00;;;;;;10411667;28;20144;-23
2023/02/12 14:53:03;;;;;;;7.72;3.15;;;20.40;65.10;;;;;;10404646;28;20978;-24
2023/02/12 14:58:15;;;;;;;8.27;3.25;;;20.40;64.90;;;;;;10407162;28;20493;-24
2023/02/12 15:03:30;;;;;;;6.18;3.28;;;20.40;64.80;;;;;;10413628;28;20067;-24
2023/02/12 15:08:38;;;;;;;5.88;3.45;;;20.40;65.00;;;;;;10408230;28;20645;-25
2023/02/12 15:13:48;;;;;;;4.55;2.80;;;20.30;65.30;;;;;;10408311;28;20084;-24
2023/02/12 15:18:57;;;;;;;7.70;2.90;;;20.30;65.50;;;;;;10409569;28;20542;-24
2023/02/12 15:24:04;;;;;;;6.35;3.00;;;20.30;65.50;;;;;;10414121;28;20053;-23
2023/02/12 15:29:07;;;;;;;6.93;3.38;;;20.00;66.70;;;;;;10411429;28;20053;-24
2023/02/12 15:34:20;;;;;;;7.75;2.58;;;19.90;68.00;;;;;;10426402;28;20553;-22
2023/02/12 15:39:23;;;;;;;7.30;3.42;;;19.80;68.40;;;;;;10413374;28;20045;-24
2023/02/12 15:44:27;;;;;;;4.95;3.42;;;20.20;67.00;;;;;;10425538;28;20132;-24
2023/02/12 15:49:34;;;;;;;3.28;2.45;;;20.20;66.60;;;;;;10420518;28;20844;-24
2023/02/12 15:54:37;;;;;;;7.20;3.28;;;20.20;66.20;;;;;;10417195;28;20138;-23
2023/02/12 15:59:40;;;;;;;6.15;3.25;;;20.30;66.20;;;;;;10423432;28;20042;-24
2023/02/12 16:04:44;;;;;;;6.43;3.13;;;20.30;66.10;;;;;;10425227;28;20509;-24
2023/02/12 16:09:48;;;;;;;6.25;3.35;;;20.30;66.10;;;;;;10412644;28;20099;-25
2023/02/12 16:14:53;;;;;;;5.00;3.20;;;20.30;65.90;;;;;;10428487;28;20636;-23
2023/02/12 16:19:57;;;;;;;6.57;3.45;;;20.30;65.80;;;;;;10413116;28;20103;-24
2023/02/12 16:25:00;;;;;;;7.85;4.07;;;20.30;65.70;;;;;;10412208;28;20059;-24
2023/02/12 16:30:05;;;;;;;5.82;3.95;;;20.30;65.70;;;;;;10417211;28;20130;-25
2023/02/12 16:35:26;;;;;;;5.40;3.30;;;20.30;65.20;;;;;;10430111;28;20782;-24
2023/02/12 16:40:37;;;;;;;6.53;4.10;;;20.30;65.50;;;;;;10423756;28;20115;-25
2023/02/12 16:45:42;;;;;;;7.07;3.42;;;20.30;65.80;;;;;;10417108;28;20044;-23
2023/02/12 16:50:49;;;;;;;4.28;3.25;;;20.30;65.60;;;;;;10425757;28;20052;-25
2023/02/12 16:55:51;;;;;;;7.20;3.80;;;20.30;65.10;;;;;;10418547;28;20147;-26
2023/02/12 17:00:54;;;;;;;10.75;3.90;;;20.30;64.90;;;;;;10424837;28;20854;-25
2023/02/12 17:05:57;;;;;;;6.72;4.05;;;20.30;64.70;;;;;;10412083;28;20049;-33
2023/02/12 17:10:59;;;;;;;8.73;4.53;;;20.30;64.50;;;;;;10417531;28;20153;-23
2023/02/12 17:16:02;;;;;;;9.65;5.55;;;20.00;65.70;;;;;;10417264;28;20049;-26
2023/02/12 17:21:09;;;;;;;8.07;4.80;;;19.90;66.70;;;;;;10421878;28;20049;-24
2023/02/12 17:26:11;;;;;;;7.35;5.18;;;20.20;64.50;;;;;;10415019;28;20091;-22
2023/02/12 17:31:13;;;;;;;8.77;5.68;;;20.30;64.50;;;;;;10408090;28;20049;-26
2023/02/12 17:36:16;;;;;;;11.32;5.93;;;20.20;64.70;;;;;;10418706;28;20630;-24
2023/02/12 17:41:19;;;;;;;14.30;5.38;;;20.20;64.90;;;;;;10416284;28;20053;-23
2023/02/12 17:46:21;;;;;;;;;;;20.30;65.20;;;;;;10419657;28;20047;-23
2023/02/12 17:51:24;;;;;;;;;;;20.20;65.30;;;;;;10414361;28;20043;-25
2023/02/12 17:56:26;;;;;;;12.35;6.07;;;20.10;66.10;;;;;;10414541;28;20416;-24
2023/02/12 18:01:28;;;;;;;17.42;6.05;;;20.00;66.50;;;;;;10418606;28;20387;-24
2023/02/12 18:06:32;;;;;;;10.93;6.13;;;20.00;66.80;;;;;;10411489;28;20543;-23
2023/02/12 18:11:33;;;;;;;16.00;6.00;;;20.10;66.70;;;;;;10417673;28;20103;-24
2023/02/12 18:16:35;;;;;;;13.02;6.38;;;20.10;67.40;;;;;;10417660;28;20053;-24
2023/02/12 18:21:39;;;;;;;11.38;6.55;;;19.80;68.40;;;;;;10422477;28;20131;-23
2023/02/12 18:26:41;;;;;;;9.63;6.07;;;20.00;67.80;;;;;;10418311;28;20140;-25
2023/02/12 18:31:42;;;;;;;8.65;6.10;;;20.00;67.80;;;;;;10412945;28;20045;-23
2023/02/12 18:36:46;;;;;;;11.23;6.22;;;20.00;67.50;;;;;;10417300;28;20137;-25
2023/02/12 18:41:48;;;;;;;9.90;6.35;;;20.00;67.60;;;;;;10415005;28;20049;-24
2023/02/12 18:46:50;;;;;;;9.65;6.57;;;20.00;67.60;;;;;;10418692;28;20041;-25
2023/02/12 18:51:53;;;;;;;12.93;6.63;;;20.00;67.60;;;;;;10412839;28;20077;-25
2023/02/12 18:56:55;;;;;;;10.98;6.75;;;20.00;67.50;;;;;;10419661;28;20143;-23
2023/02/12 19:01:57;;;;;;;13.52;7.35;;;20.00;67.50;;;;;;10417487;28;20049;-23
2023/02/12 19:07:00;;;;;;;10.00;6.60;;;20.00;67.50;;;;;;10410197;28;20140;-24
2023/02/12 19:12:02;;;;;;;12.57;7.10;;;20.00;67.40;;;;;;10418741;28;20503;-25
2023/02/12 19:17:04;;;;;;;10.18;6.93;;;20.00;67.40;;;;;;10411886;28;20086;-23
2023/02/12 19:22:07;;;;;;;10.48;7.00;;;20.00;67.40;;;;;;10419532;28;20051;-24
2023/02/12 19:27:09;;;;;;;10.82;6.90;;;20.00;67.50;;;;;;10419689;28;20494;-24
2023/02/12 19:32:11;;;;;;;14.80;6.28;;;20.00;67.40;;;;;;10410063;28;20057;-28
2023/02/12 19:37:14;;;;;;;13.43;7.85;;;20.20;66.70;;;;;;10410275;28;20054;-22
2023/02/12 19:42:16;;;;;;;11.43;7.20;;;20.00;67.20;;;;;;10412193;28;20168;-24
2023/02/12 19:47:18;;;;;;;13.18;7.15;;;20.20;66.60;;;;;;10413100;28;20152;-24
2023/02/12 19:52:21;;;;;;;12.48;7.05;;;20.20;66.40;;;;;;10415960;28;20050;-24
2023/02/12 19:57:23;;;;;;;11.00;7.05;;;20.20;66.40;;;;;;10414199;28;20517;-24
2023/02/12 20:02:25;;;;;;;11.32;6.50;;;20.20;66.30;;;;;;10413757;28;20077;-23
2023/02/12 20:07:29;;;;;;;11.75;6.45;;;20.20;66.60;;;;;;10411060;28;20809;-27
2023/02/12 20:12:31;;;;;;;11.93;7.20;;;20.20;66.90;;;;;;10410408;28;20570;-22
2023/02/12 20:17:32;;;;;;;9.85;6.00;;;20.20;66.60;;;;;;10425112;28;20057;-24
2023/02/12 20:22:37;;;;;;;10.82;6.57;;;20.20;66.70;;;;;;10436738;28;20150;-23
2023/02/12 20:27:39;;;;;;;7.70;5.82;;;20.30;66.60;;;;;;10426953;28;20056;-24
2023/02/12 20:32:43;;;;;;;8.57;5.88;;;20.30;66.20;;;;;;10424743;28;20499;-23
2023/02/12 20:37:46;;;;;;;13.02;6.03;;;20.20;65.90;;;;;;10433739;28;20041;-25
2023/02/12 20:42:48;;;;;;;11.60;5.57;;;20.30;65.80;;;;;;10421786;28;20761;-26
2023/02/12 20:47:50;;;;;;;12.98;6.60;;;20.20;65.50;;;;;;10419407;28;20064;-23
2023/02/12 20:52:53;;;;;;;9.30;5.20;;;20.30;65.20;;;;;;10429369;28;20072;-25
2023/02/12 20:57:55;;;;;;;11.13;5.40;;;20.20;65.10;;;;;;10431279;28;20098;-24
2023/02/12 21:02:59;;;;;;;9.27;6.00;;;20.30;64.90;;;;;;10429594;28;20072;-24
2023/02/12 21:08:02;;;;;;;10.70;5.63;;;20.20;64.80;;;;;;10430546;28;20559;-23
2023/02/12 21:13:04;;;;;;;9.05;5.30;;;20.20;64.70;;;;;;10417288;28;20156;-23
2023/02/12 21:18:06;;;;;;;14.82;5.45;;;20.20;64.60;;;;;;10418587;28;20045;-24
2023/02/12 21:23:09;;;;;;;8.85;5.10;;;20.20;64.40;;;;;;10417939;28;20130;-23
2023/02/12 21:28:11;;;;;;;11.68;5.10;;;20.20;64.40;;;;;;10427903;28;20132;-24
2023/02/12 21:33:13;;;;;;;8.48;4.63;;;20.20;64.30;;;;;;10431258;28;20230;-23
2023/02/12 21:38:17;;;;;;;8.10;4.82;;;20.10;64.40;;;;;;10434284;28;20132;-24
2023/02/12 21:43:19;;;;;;;7.35;4.53;;;20.20;64.20;;;;;;10431062;28;20091;-22
2023/02/12 21:48:20;;;;;;;8.65;5.18;;;20.10;64.30;;;;;;10428651;28;20504;-24
2023/02/12 21:53:24;;;;;;;9.35;4.18;;;20.20;64.60;;;;;;10419168;28;20046;-23
2023/02/12 21:58:26;;;;;;;8.77;5.07;;;20.20;64.90;;;;;;10433136;28;20106;-24
2023/02/12 22:03:28;;;;;;;12.55;4.75;;;20.10;65.20;;;;;;10431261;28;20120;-24
2023/02/12 22:08:31;;;;;;;;;;;20.10;65.10;;;;;;10435867;28;20496;-23
2023/02/12 22:13:34;;;;;;;7.10;4.40;;;20.10;65.20;;;;;;10417046;28;19921;-23
2023/02/12 22:18:36;;;;;;;6.78;3.88;;;20.10;65.10;;;;;;10418864;28;20123;-24
2023/02/12 22:23:40;;;;;;;11.10;4.95;;;20.10;65.20;;;;;;10429269;28;20072;-25
2023/02/12 22:28:44;;;;;;;8.48;4.05;;;20.00;65.00;;;;;;10421902;28;20083;-25
2023/02/12 22:33:46;;;;;;;6.97;4.03;;;20.00;65.10;;;;;;10427302;28;20053;-24
2023/02/12 22:38:49;;;;;;;6.95;4.00;;;20.00;65.00;;;;;;10430190;28;20076;-25
2023/02/12 22:43:51;;;;;;;7.57;4.20;;;20.00;64.70;;;;;;10421322;28;20230;-24
2023/02/12 22:48:53;;;;;;;6.88;4.20;;;19.90;65.20;;;;;;10422115;28;20049;-24
2023/02/12 22:53:57;;;;;;;7.38;4.45;;;19.80;66.00;;;;;;10423541;28;20157;-24
2023/02/12 22:59:00;;;;;;;4.53;3.42;;;19.80;65.30;;;;;;10427254;28;20049;-24
2023/02/12 23:04:02;;;;;;;9.50;4.90;;;19.90;65.00;;;;;;10424542;28;20056;-27
2023/02/12 23:09:05;;;;;;;7.90;4.18;;;19.80;64.70;;;;;;10420794;28;20122;-24
2023/02/12 23:14:07;;;;;;;4.50;3.15;;;19.80;64.90;;;;;;10436399;28;20051;-25
2023/02/12 23:19:10;;;;;;;7.55;3.53;;;19.80;65.00;;;;;;10426942;28;20049;-24
2023/02/12 23:24:14;;;;;;;4.93;3.40;;;19.80;64.60;;;;;;10433879;28;20518;-26
2023/02/12 23:29:16;;;;;;;5.38;3.63;;;19.80;64.80;;;;;;10434191;28;20108;-25
2023/02/12 23:34:18;;;;;;;6.20;4.00;;;19.70;64.70;;;;;;10433209;28;20203;-23
2023/02/12 23:39:21;;;;;;;5.70;3.45;;;19.70;64.60;;;;;;10428597;28;20132;-25
2023/02/12 23:44:23;;;;;;;4.82;3.47;;;19.70;64.60;;;;;;10415837;28;20042;-23
2023/02/12 23:49:25;;;;;;;4.10;3.03;;;19.70;64.60;;;;;;10417503;28;20126;-24
2023/02/12 23:54:30;;;;;;;8.48;3.72;;;19.70;64.60;;;;;;10418119;28;20152;-23
2023/02/12 23:59:32;;;;;;;4.18;3.28;;;19.70;64.40;;;;;;10427657;28;20140;-26
